Time;durP1;ratioP1;P1;durP2;ratioP2;P2;SDS_P1;SDS_P2;PMS_P1;PMS_P2;Temp;Humidity;BMP_temperature;BMP_pressure;BME280_temperature;BME280_humidity;BME280_pressure;Samples;Min_cycle;Max_cycle;Signal;HPM_P1;HPM_P2
2023/09/19 00:00:47;;;;;;;10.25;1.90;;;;;;;14.54;100.00;100771.06;5074192;28;20469;-80
2023/09/19 00:03:12;;;;;;;8.10;1.80;;;;;;;14.48;100.00;100769.06;5073618;28;20025;-82
2023/09/19 00:05:39;;;;;;;6.15;1.80;;;;;;;14.47;100.00;100773.59;5074371;28;20047;-82
2023/09/19 00:08:05;;;;;;;14.95;2.28;;;;;;;14.43;100.00;100774.94;5073600;28;20029;-80
2023/09/19 00:10:34;;;;;;;7.10;1.70;;;;;;;14.42;100.00;100776.78;5073830;28;20111;-84
2023/09/19 00:13:05;;;;;;;11.68;1.88;;;;;;;14.42;100.00;100781.28;5074473;28;20025;-84
2023/09/19 00:15:35;;;;;;;5.80;1.43;;;;;;;14.40;100.00;100785.97;5073345;28;20032;-81
2023/09/19 00:18:00;;;;;;;10.43;1.87;;;;;;;14.44;100.00;100784.63;5074263;28;20101;-82
2023/09/19 00:20:26;;;;;;;11.10;1.80;;;;;;;14.45;100.00;100787.16;5074135;28;20293;-85
2023/09/19 00:22:53;;;;;;;7.72;2.67;;;;;;;14.40;100.00;100788.66;5074546;28;20029;-82
2023/09/19 00:25:20;;;;;;;6.40;1.42;;;;;;;14.36;100.00;100785.47;5073976;28;20032;-81
2023/09/19 00:27:47;;;;;;;11.18;1.75;;;;;;;14.33;100.00;100785.81;5073408;28;20497;-84
2023/09/19 00:30:19;;;;;;;4.10;1.40;;;;;;;14.34;100.00;100792.00;5073925;28;20075;-82
2023/09/19 00:32:47;;;;;;;10.73;1.80;;;;;;;14.38;100.00;100790.66;5074121;28;20097;-82
2023/09/19 00:35:15;;;;;;;9.70;1.88;;;;;;;14.43;100.00;100789.13;5074278;28;20029;-83
2023/09/19 00:37:41;;;;;;;18.33;2.63;;;;;;;14.45;100.00;100797.88;5073587;28;20032;-84
2023/09/19 00:40:11;;;;;;;13.90;2.92;;;;;;;14.49;100.00;100798.34;5073677;28;20035;-83
2023/09/19 00:42:38;;;;;;;9.80;2.13;;;;;;;14.55;100.00;100795.00;5072384;28;20036;-84
2023/09/19 00:45:05;;;;;;;12.82;2.45;;;;;;;14.61;100.00;100790.88;5078762;28;20504;-80
2023/09/19 00:47:30;;;;;;;10.70;2.20;;;;;;;14.66;100.00;100791.22;5085042;28;20027;-79
2023/09/19 00:49:56;;;;;;;15.07;2.45;;;;;;;14.68;100.00;100796.41;5076583;28;20055;-80
2023/09/19 00:52:23;;;;;;;17.58;2.65;;;;;;;14.64;100.00;100798.56;5071883;28;20029;-82
2023/09/19 00:54:50;;;;;;;10.95;2.30;;;;;;;14.67;100.00;100802.75;5073833;28;20028;-81
2023/09/19 00:57:17;;;;;;;10.73;2.50;;;;;;;14.63;100.00;100802.28;5072915;28;20025;-81
2023/09/19 00:59:42;;;;;;;13.07;2.25;;;;;;;14.60;100.00;100800.72;5055639;28;20024;-82
2023/09/19 01:02:08;;;;;;;11.60;2.38;;;;;;;14.58;100.00;100807.22;5072563;28;20425;-81
2023/09/19 01:04:36;;;;;;;9.43;2.38;;;;;;;14.57;100.00;100805.56;5072072;28;20025;-84
2023/09/19 01:07:01;;;;;;;9.38;1.63;;;;;;;14.54;100.00;100806.75;5072031;28;20025;-81
2023/09/19 01:09:27;;;;;;;12.00;2.13;;;;;;;14.48;100.00;100812.75;5072570;28;20047;-81
2023/09/19 01:12:00;;;;;;;13.57;2.28;;;;;;;14.42;100.00;100805.38;5073168;28;20032;-81
2023/09/19 01:14:27;;;;;;;12.73;2.40;;;;;;;14.36;100.00;100814.06;5073408;28;20025;-83
2023/09/19 01:17:39;;;;;;;6.47;2.10;;;;;;;14.31;100.00;100800.34;5073354;28;20127;-82
2023/09/19 01:20:27;;;;;;;10.70;1.92;;;;;;;14.32;100.00;100802.84;5071310;28;20044;-83
2023/09/19 01:22:56;;;;;;;13.23;2.03;;;;;;;14.34;100.00;100802.69;5073613;28;20059;-83
2023/09/19 01:25:35;;;;;;;9.40;1.90;;;;;;;14.39;100.00;100813.72;5073055;28;20036;-82
2023/09/19 01:28:40;;;;;;;14.43;2.20;;;;;;;14.36;100.00;100811.38;5072784;28;20119;-82
2023/09/19 01:31:11;;;;;;;17.75;2.22;;;;;;;14.36;100.00;100806.88;5074270;28;20036;-83
2023/09/19 01:34:01;;;;;;;;;;;;;;;14.39;100.00;100806.56;5073765;28;20053;-84
2023/09/19 01:36:36;;;;;;;10.45;2.10;;;;;;;14.45;100.00;100802.34;5074499;28;19920;-82
2023/09/19 01:39:10;;;;;;;12.75;2.72;;;;;;;14.45;100.00;100821.94;5074874;28;20028;-86
2023/09/19 01:42:15;;;;;;;12.35;1.90;;;;;;;14.44;100.00;100816.75;5073083;28;20024;-81
2023/09/19 01:44:46;;;;;;;9.88;2.38;;;;;;;14.41;100.00;100811.75;5070602;28;20473;-85
2023/09/19 01:47:43;;;;;;;13.00;2.35;;;;;;;14.41;100.00;100825.94;5071426;28;20028;-82
2023/09/19 01:50:27;;;;;;;16.92;2.58;;;;;;;14.46;100.00;100818.28;5072770;28;20024;-79
2023/09/19 01:53:04;;;;;;;16.70;2.70;;;;;;;14.42;100.00;100822.28;5072567;28;20029;-79
2023/09/19 01:55:30;;;;;;;12.75;2.00;;;;;;;14.36;100.00;100822.94;5072609;28;20116;-84
2023/09/19 01:57:59;;;;;;;12.70;3.58;;;;;;;14.28;100.00;100820.25;5071626;28;20084;-83
2023/09/19 02:00:29;;;;;;;14.32;2.33;;;;;;;14.23;100.00;100826.09;5072584;28;20032;-86
2023/09/19 02:02:58;;;;;;;13.30;2.05;;;;;;;14.22;100.00;100815.53;5072019;28;20459;-84
2023/09/19 02:05:24;;;;;;;10.32;2.25;;;;;;;14.16;100.00;100811.69;5070738;28;20028;-84
2023/09/19 02:07:50;;;;;;;19.67;2.50;;;;;;;14.10;100.00;100812.34;5071859;28;20130;-84
2023/09/19 02:10:16;;;;;;;12.82;2.05;;;;;;;14.00;100.00;100815.16;5071893;28;20376;-84
2023/09/19 02:12:42;;;;;;;11.98;2.28;;;;;;;13.91;100.00;100813.44;5070534;28;20425;-88
2023/09/19 02:15:08;;;;;;;12.82;2.28;;;;;;;13.90;100.00;100819.81;5070820;28;20040;-83
2023/09/19 02:17:33;;;;;;;8.15;2.05;;;;;;;13.88;100.00;100811.09;5075501;28;20062;-86
2023/09/19 02:20:00;;;;;;;14.55;3.10;;;;;;;13.86;100.00;100824.63;5075731;28;20350;-85
2023/09/19 02:22:26;;;;;;;12.55;2.33;;;;;;;13.86;100.00;100832.63;5076019;28;20032;-84
2023/09/19 02:24:53;;;;;;;13.25;2.15;;;;;;;13.86;100.00;100826.47;5074982;28;20161;-88
2023/09/19 02:27:19;;;;;;;11.43;2.08;;;;;;;13.86;100.00;100826.47;5076537;28;20086;-83
2023/09/19 02:29:44;;;;;;;17.60;2.22;;;;;;;13.86;100.00;100832.63;5077014;28;20078;-86
2023/09/19 02:32:10;;;;;;;12.98;3.30;;;;;;;13.90;100.00;100825.16;5075687;28;20029;-85
2023/09/19 02:34:39;;;;;;;7.57;1.42;;;;;;;13.98;100.00;100827.00;5076547;28;20350;-84
2023/09/19 02:37:08;;;;;;;9.43;1.83;;;;;;;14.05;100.00;100833.41;5074633;28;20036;-76
2023/09/19 02:39:34;;;;;;;13.27;2.33;;;;;;;14.10;100.00;100821.19;5076482;28;20043;-77
2023/09/19 02:41:59;;;;;;;12.27;1.88;;;;;;;14.17;100.00;100831.25;5076546;28;20029;-77
2023/09/19 02:44:25;;;;;;;14.07;2.33;;;;;;;14.22;100.00;100836.94;5076467;28;20060;-75
2023/09/19 02:46:50;;;;;;;10.60;2.20;;;;;;;14.28;100.00;100822.91;5076450;28;20078;-76
2023/09/19 02:49:17;;;;;;;7.38;1.90;;;;;;;14.33;100.00;100831.31;5076401;28;20491;-76
2023/09/19 02:51:43;;;;;;;16.45;3.15;;;;;;;14.38;100.00;100834.31;5076874;28;20298;-77
2023/09/19 02:54:09;;;;;;;14.77;2.10;;;;;;;14.41;100.00;100827.81;5076693;28;20514;-76
2023/09/19 02:56:35;;;;;;;11.20;2.00;;;;;;;14.40;100.00;100820.75;5076256;28;20089;-76
2023/09/19 02:59:01;;;;;;;13.10;2.00;;;;;;;14.37;100.00;100821.09;5076940;28;20082;-78
2023/09/19 03:01:28;;;;;;;11.40;2.03;;;;;;;14.31;100.00;100819.91;5076775;28;20040;-76
2023/09/19 03:03:53;;;;;;;11.07;2.28;;;;;;;14.32;100.00;100828.78;5076184;28;20076;-76
2023/09/19 03:06:19;;;;;;;11.88;2.38;;;;;;;14.34;100.00;100834.81;5076011;28;20079;-77
2023/09/19 03:08:46;;;;;;;13.38;2.47;;;;;;;14.40;100.00;100837.66;5076186;28;20031;-78
2023/09/19 03:11:14;;;;;;;12.77;2.15;;;;;;;14.42;100.00;100829.47;5076019;28;20043;-77
2023/09/19 03:13:41;;;;;;;8.13;1.60;;;;;;;14.45;100.00;100829.97;5076195;28;20039;-76
2023/09/19 03:16:07;;;;;;;13.27;2.50;;;;;;;14.52;100.00;100824.78;5075875;28;20036;-76
2023/09/19 03:18:35;;;;;;;11.35;2.03;;;;;;;14.56;100.00;100814.59;5075995;28;20031;-76
2023/09/19 03:21:01;;;;;;;11.73;2.03;;;;;;;14.57;100.00;100810.91;5075826;28;20025;-76
2023/09/19 03:23:27;;;;;;;10.70;1.90;;;;;;;14.60;100.00;100818.59;5075842;28;20039;-78
2023/09/19 03:25:54;;;;;;;9.52;1.80;;;;;;;14.64;100.00;100809.28;5075741;28;20036;-76
2023/09/19 03:28:20;;;;;;;7.32;1.95;;;;;;;14.62;100.00;100811.28;5075300;28;20082;-77
2023/09/19 03:30:46;;;;;;;10.25;2.38;;;;;;;14.60;100.00;100821.28;5075565;28;20036;-77
2023/09/19 03:33:12;;;;;;;11.80;1.80;;;;;;;14.55;100.00;100818.28;5075210;28;20036;-76
2023/09/19 03:35:39;;;;;;;10.80;1.92;;;;;;;14.57;100.00;100819.78;5074759;28;20115;-77
2023/09/19 03:38:05;;;;;;;9.48;2.10;;;;;;;14.54;100.00;100819.28;5074283;28;20032;-76
2023/09/19 03:40:30;;;;;;;9.68;2.20;;;;;;;14.54;100.00;100838.00;5074423;28;20107;-77
2023/09/19 03:42:56;;;;;;;15.98;2.00;;;;;;;14.56;100.00;100844.06;5074828;28;20060;-76
2023/09/19 03:45:21;;;;;;;11.20;1.80;;;;;;;14.53;100.00;100839.03;5074215;28;20090;-76
2023/09/19 03:47:47;;;;;;;10.60;2.17;;;;;;;14.50;100.00;100844.72;5074714;28;20063;-76
2023/09/19 03:50:17;;;;;;;9.13;2.20;;;;;;;14.48;100.00;100842.22;5074524;28;20047;-76
2023/09/19 03:52:45;;;;;;;9.02;2.13;;;;;;;14.49;100.00;100843.03;5074237;28;20028;-77
2023/09/19 03:55:10;;;;;;;10.38;2.13;;;;;;;14.49;100.00;100841.19;5074492;28;20074;-77
2023/09/19 03:57:36;;;;;;;12.30;2.10;;;;;;;14.50;100.00;100842.03;5074159;28;20029;-77
2023/09/19 04:00:04;;;;;;;11.15;2.30;;;;;;;14.47;100.00;100829.81;5074092;28;20491;-76
2023/09/19 04:02:32;;;;;;;8.27;2.10;;;;;;;14.44;100.00;100852.38;5074055;28;20036;-77
2023/09/19 04:04:58;;;;;;;13.32;1.88;;;;;;;14.38;100.00;100855.72;5073940;28;20035;-79
2023/09/19 04:07:25;;;;;;;10.45;2.03;;;;;;;14.32;100.00;100851.03;5074030;28;20033;-78
2023/09/19 04:09:53;;;;;;;11.88;2.20;;;;;;;14.29;100.00;100854.03;5073812;28;20112;-77
2023/09/19 04:12:18;;;;;;;8.35;1.80;;;;;;;14.28;100.00;100860.38;5073800;28;20495;-76
2023/09/19 04:14:44;;;;;;;10.20;1.90;;;;;;;14.31;100.00;100854.69;5074353;28;20029;-77
2023/09/19 04:17:10;;;;;;;8.57;1.80;;;;;;;14.27;100.00;100850.66;5073793;28;20081;-77
2023/09/19 04:19:36;;;;;;;9.60;2.10;;;;;;;14.26;100.00;100852.50;5072532;28;20044;-74
2023/09/19 04:22:01;;;;;;;10.77;2.20;;;;;;;14.24;100.00;100853.66;5073810;28;20035;-77
2023/09/19 04:24:27;;;;;;;9.32;2.20;;;;;;;14.22;100.00;100856.50;5074117;28;20043;-76
2023/09/19 04:26:52;;;;;;;8.13;1.58;;;;;;;14.23;100.00;100852.00;5074051;28;20032;-76
2023/09/19 04:29:19;;;;;;;6.13;1.52;;;;;;;14.23;100.00;100849.34;5073577;28;20056;-79
2023/09/19 04:31:45;;;;;;;4.15;1.42;;;;;;;14.23;100.00;100860.03;5074425;28;20499;-77
2023/09/19 04:34:16;;;;;;;7.40;1.75;;;;;;;14.18;100.00;100855.19;5034547;28;1118561;-78
2023/09/19 04:36:41;;;;;;;13.35;2.30;;;;;;;14.15;100.00;100860.00;5074987;28;20052;-78
2023/09/19 04:39:07;;;;;;;12.77;2.05;;;;;;;14.07;100.00;100875.03;5073434;28;20101;-76
2023/09/19 04:41:34;;;;;;;10.05;1.90;;;;;;;14.03;100.00;100870.16;5074387;28;20076;-79
2023/09/19 04:44:00;;;;;;;8.10;2.08;;;;;;;14.00;100.00;100876.69;5074728;28;20124;-78
2023/09/19 04:46:25;;;;;;;7.30;1.77;;;;;;;14.01;100.00;100875.66;5074927;28;20039;-78
2023/09/19 04:48:50;;;;;;;7.75;1.63;;;;;;;14.00;100.00;100875.81;5074146;28;20107;-76
2023/09/19 04:51:16;;;;;;;10.77;1.83;;;;;;;14.02;100.00;100872.00;5074163;28;20082;-77
2023/09/19 04:53:42;;;;;;;12.90;2.38;;;;;;;14.02;100.00;100871.19;5074063;28;20037;-77
2023/09/19 04:56:07;;;;;;;14.50;2.00;;;;;;;13.99;100.00;100872.31;5074093;28;20085;-77
2023/09/19 04:58:33;;;;;;;8.38;1.67;;;;;;;13.96;100.00;100880.66;5072681;28;20040;-77
2023/09/19 05:00:59;;;;;;;15.30;1.70;;;;;;;13.93;100.00;100889.03;5073929;28;20033;-77
2023/09/19 05:03:24;;;;;;;11.85;1.52;;;;;;;13.87;100.00;100879.78;5073998;28;20075;-78
2023/09/19 05:05:50;;;;;;;19.88;2.28;;;;;;;13.86;100.00;100880.78;5073530;28;20033;-78
2023/09/19 05:08:15;;;;;;;10.43;2.53;;;;;;;13.85;100.00;100871.09;5073648;28;20123;-77
2023/09/19 05:10:40;;;;;;;9.23;2.30;;;;;;;13.81;100.00;100875.09;5073699;28;20119;-76
2023/09/19 05:13:07;;;;;;;9.85;3.45;;;;;;;13.82;100.00;100878.59;5074128;28;20020;-77
2023/09/19 05:15:33;;;;;;;11.23;2.38;;;;;;;13.80;100.00;100875.25;5073708;28;20035;-77
2023/09/19 05:17:58;;;;;;;10.45;2.20;;;;;;;13.83;100.00;100862.38;5073617;28;20029;-78
2023/09/19 05:20:29;;;;;;;12.32;2.55;;;;;;;13.84;100.00;100866.75;5071932;28;20427;-78
2023/09/19 05:23:12;;;;;;;9.20;2.08;;;;;;;13.88;100.00;100862.75;5074263;28;20040;-78
2023/09/19 05:25:39;;;;;;;8.90;2.33;;;;;;;13.96;100.00;100861.09;5072966;28;20338;-76
2023/09/19 05:28:11;;;;;;;11.43;2.75;;;;;;;13.97;100.00;100852.91;5073346;28;20028;-77
2023/09/19 05:30:38;;;;;;;6.88;2.03;;;;;;;14.02;100.00;100868.50;5073762;28;20457;-76
2023/09/19 05:33:04;;;;;;;12.20;2.20;;;;;;;14.09;100.00;100858.81;5071690;28;20058;-78
2023/09/19 05:35:30;;;;;;;15.45;2.40;;;;;;;14.11;100.00;100864.84;5073916;28;20029;-77
2023/09/19 05:37:57;;;;;;;11.50;2.80;;;;;;;14.12;100.00;100866.50;5073406;28;20464;-77
2023/09/19 05:40:23;;;;;;;9.70;2.53;;;;;;;14.14;100.00;100877.91;5073308;28;20024;-77
2023/09/19 05:42:50;;;;;;;14.98;2.75;;;;;;;14.13;100.00;100876.22;5073622;28;20043;-77
2023/09/19 05:45:21;;;;;;;9.13;1.98;;;;;;;14.14;100.00;100879.72;5073194;28;20032;-78
2023/09/19 05:47:47;;;;;;;11.02;2.63;;;;;;;14.14;100.00;100888.59;5073915;28;20048;-76
2023/09/19 05:50:12;;;;;;;10.55;2.10;;;;;;;14.13;100.00;100892.28;5072239;28;20029;-74
2023/09/19 05:52:38;;;;;;;13.10;2.40;;;;;;;14.19;100.00;100893.47;5072952;28;20049;-75
2023/09/19 05:55:08;;;;;;;11.43;1.92;;;;;;;14.21;100.00;100892.31;5073160;28;20123;-78
2023/09/19 05:57:34;;;;;;;9.18;2.42;;;;;;;14.27;100.00;100882.78;5072736;28;20025;-75
2023/09/19 05:59:59;;;;;;;10.80;2.00;;;;;;;14.31;100.00;100886.81;5072728;28;20043;-76
2023/09/19 06:02:29;;;;;;;13.30;2.35;;;;;;;14.33;100.00;100881.28;5072648;28;20036;-76
2023/09/19 06:04:55;;;;;;;12.77;2.40;;;;;;;14.31;100.00;100889.50;5072826;28;20036;-76
2023/09/19 06:07:27;;;;;;;11.23;2.47;;;;;;;14.31;100.00;100894.84;5072982;28;20086;-78
2023/09/19 06:09:55;;;;;;;13.18;2.50;;;;;;;14.33;100.00;100895.53;5071330;28;20032;-78
2023/09/19 06:12:21;;;;;;;16.38;2.80;;;;;;;14.36;100.00;100899.72;5072624;28;20033;-77
2023/09/19 06:14:47;;;;;;;10.82;2.35;;;;;;;14.34;100.00;100893.69;5072710;28;20056;-75
2023/09/19 06:17:12;;;;;;;21.80;2.83;;;;;;;14.30;100.00;100895.84;5072505;28;20067;-76
2023/09/19 06:19:38;;;;;;;14.32;3.33;;;;;;;14.35;100.00;100900.72;5072646;28;20123;-78
2023/09/19 06:22:03;;;;;;;15.20;2.70;;;;;;;14.44;100.00;100900.56;5072456;28;20036;-76
2023/09/19 06:24:29;;;;;;;24.85;3.13;;;;;;;14.50;100.00;100899.09;5071239;28;20043;-76
2023/09/19 06:26:54;;;;;;;17.85;3.25;;;;;;;14.51;100.00;100905.28;5072230;28;20449;-77
2023/09/19 06:29:20;;;;;;;18.35;2.90;;;;;;;14.55;100.00;100898.59;5072380;28;20161;-76
2023/09/19 06:31:46;;;;;;;13.68;2.88;;;;;;;14.58;100.00;100908.97;5073024;28;20039;-77
2023/09/19 06:34:14;;;;;;;12.23;2.25;;;;;;;14.64;100.00;100911.03;5072701;28;20053;-79
2023/09/19 06:36:40;;;;;;;20.15;3.05;;;;;;;14.67;100.00;100909.88;5072543;28;20040;-78
2023/09/19 06:39:06;;;;;;;13.95;2.80;;;;;;;14.70;100.00;100912.22;5072291;28;20033;-76
2023/09/19 06:41:31;;;;;;;19.33;3.05;;;;;;;14.71;100.00;100904.03;5072567;28;20043;-78
2023/09/19 06:43:57;;;;;;;16.83;2.53;;;;;;;14.74;100.00;100909.03;5072476;28;20036;-77
2023/09/19 06:46:23;;;;;;;7.40;2.15;;;;;;;14.77;100.00;100906.03;5072253;28;20537;-76
2023/09/19 06:48:49;;;;;;;10.52;2.50;;;;;;;14.76;100.00;100904.38;5072748;28;20032;-78
2023/09/19 06:51:15;;;;;;;15.95;2.55;;;;;;;14.79;100.00;100908.53;5072177;28;20040;-76
2023/09/19 06:53:41;;;;;;;15.75;3.40;;;;;;;14.81;100.00;100912.75;5072092;28;20464;-78
2023/09/19 06:56:07;;;;;;;13.98;3.20;;;;;;;14.85;100.00;100915.09;5072340;28;20047;-78
2023/09/19 06:58:32;;;;;;;13.57;2.90;;;;;;;14.87;100.00;100913.94;5072522;28;20477;-77
2023/09/19 07:00:57;;;;;;;12.82;3.13;;;;;;;14.87;100.00;100913.06;5071900;28;20037;-77
2023/09/19 07:03:26;;;;;;;11.80;2.38;;;;;;;14.83;100.00;100909.06;5074736;28;20077;-78
2023/09/19 07:05:52;;;;;;;16.88;2.72;;;;;;;14.70;100.00;100906.88;5075819;28;20202;-77
2023/09/19 07:08:19;;;;;;;9.00;2.53;;;;;;;14.64;100.00;100916.38;5075965;28;20173;-77
2023/09/19 07:10:48;;;;;;;16.90;2.88;;;;;;;14.62;100.00;100926.44;5074324;28;20393;-78
2023/09/19 07:13:16;;;;;;;11.85;2.30;;;;;;;14.62;100.00;100921.06;5076002;28;20067;-78
2023/09/19 07:15:46;;;;;;;16.45;2.15;;;;;;;14.65;100.00;100923.41;5075833;28;20032;-80
2023/09/19 07:18:16;;;;;;;17.35;2.67;;;;;;;14.70;100.00;100920.25;5075949;28;20038;-78
2023/09/19 07:20:48;;;;;;;11.48;2.20;;;;;;;14.72;100.00;100918.22;5075909;28;20071;-77
2023/09/19 07:23:18;;;;;;;18.50;2.80;;;;;;;14.73;100.00;100919.91;5075903;28;20032;-77
2023/09/19 07:25:44;;;;;;;15.75;2.75;;;;;;;14.81;100.00;100922.63;5075937;28;20028;-77
2023/09/19 07:28:09;;;;;;;12.93;2.75;;;;;;;14.83;100.00;100930.50;5075701;28;20171;-77
2023/09/19 07:30:38;;;;;;;12.90;2.70;;;;;;;14.85;100.00;100934.66;5075413;28;20136;-77
2023/09/19 07:33:05;;;;;;;18.55;3.70;;;;;;;14.78;100.00;100929.16;5075513;28;20033;-75
2023/09/19 07:35:31;;;;;;;18.17;2.80;;;;;;;14.82;100.00;100940.34;5075925;28;20047;-77
2023/09/19 07:37:58;;;;;;;17.48;3.17;;;;;;;14.80;100.00;100937.84;5074948;28;20119;-78
2023/09/19 07:40:24;;;;;;;15.38;3.33;;;;;;;14.80;100.00;100950.41;5075486;28;20048;-77
2023/09/19 07:42:50;;;;;;;21.60;3.72;;;;;;;14.82;100.00;100940.34;5075251;28;20042;-77
2023/09/19 07:45:16;;;;;;;18.23;3.00;;;;;;;14.85;100.00;100945.38;5076046;28;20407;-77
2023/09/19 07:47:46;;;;;;;17.27;3.35;;;;;;;14.89;100.00;100933.34;5075401;28;20025;-77
2023/09/19 07:50:12;;;;;;;21.00;2.85;;;;;;;14.89;100.00;100936.03;5075341;28;20131;-78
2023/09/19 07:52:39;;;;;;;16.27;3.00;;;;;;;14.96;100.00;100941.56;5075302;28;20111;-79
2023/09/19 07:55:08;;;;;;;22.15;3.13;;;;;;;14.96;100.00;100922.81;5074084;28;20032;-78
2023/09/19 07:57:35;;;;;;;13.82;3.35;;;;;;;15.02;100.00;100926.66;5075134;28;20120;-80
2023/09/19 08:00:00;;;;;;;13.75;3.05;;;;;;;15.04;100.00;100930.84;5075211;28;20116;-78
2023/09/19 08:02:25;;;;;;;19.92;2.85;;;;;;;15.05;100.00;100910.25;5075095;28;20052;-80
2023/09/19 08:04:51;;;;;;;24.08;3.83;;;;;;;15.16;100.00;100920.63;5075359;28;20032;-77
2023/09/19 08:07:18;;;;;;;16.90;2.53;;;;;;;15.32;100.00;100912.59;5074809;28;20040;-79
2023/09/19 08:09:46;;;;;;;10.05;2.90;;;;;;;15.49;100.00;100916.09;5075163;28;20028;-77
2023/09/19 08:12:12;;;;;;;13.40;2.85;;;;;;;15.57;100.00;100909.91;5074965;28;20119;-76
2023/09/19 08:14:37;;;;;;;19.77;3.20;;;;;;;15.57;100.00;100904.53;5055954;28;20598;-77
2023/09/19 08:17:05;;;;;;;21.95;4.10;;;;;;;15.73;100.00;100909.00;5074483;28;20033;-77
2023/09/19 08:19:31;;;;;;;10.77;2.65;;;;;;;15.86;100.00;100911.19;5074849;28;20040;-76
2023/09/19 08:22:00;;;;;;;18.98;3.70;;;;;;;15.84;100.00;100903.31;5074902;28;20036;-77
2023/09/19 08:24:29;;;;;;;16.70;3.13;;;;;;;15.91;100.00;100914.19;5074672;28;20040;-76
2023/09/19 08:26:58;;;;;;;13.93;2.75;;;;;;;15.64;100.00;100920.78;5074880;28;20039;-75
2023/09/19 08:29:27;;;;;;;17.25;3.10;;;;;;;15.54;100.00;100918.28;5074532;28;20028;-76
2023/09/19 08:31:57;;;;;;;17.95;3.03;;;;;;;15.53;100.00;100921.97;5074541;28;20063;-76
2023/09/19 08:34:23;;;;;;;21.00;2.67;;;;;;;15.54;100.00;100906.69;5074414;28;20053;-77
2023/09/19 08:36:56;;;;;;;13.27;3.22;;;;;;;15.52;100.00;100913.09;5074409;28;20453;-75
2023/09/19 08:39:22;;;;;;;17.25;3.17;;;;;;;15.40;100.00;100909.06;5074496;28;20033;-75
2023/09/19 08:41:47;;;;;;;13.13;2.75;;;;;;;15.28;100.00;100910.44;5072935;28;20481;-78
2023/09/19 08:44:13;;;;;;;15.10;3.67;;;;;;;15.23;100.00;100907.44;5056692;28;20028;-77
2023/09/19 08:46:41;;;;;;;17.25;3.10;;;;;;;15.33;100.00;100913.44;5074588;28;20059;-77
2023/09/19 08:49:33;;;;;;;15.05;2.75;;;;;;;15.39;100.00;100910.09;5074182;28;20028;-78
2023/09/19 08:52:20;;;;;;;;;;;;;;;15.31;100.00;100918.13;5075189;28;20050;-76
2023/09/19 08:54:48;;;;;;;23.00;3.42;;;;;;;15.12;100.00;100916.63;5074127;28;20390;-77
2023/09/19 08:57:21;;;;;;;15.48;3.17;;;;;;;14.98;100.00;100918.13;5074053;28;20028;-76
2023/09/19 08:59:47;;;;;;;20.65;3.10;;;;;;;14.97;100.00;100922.66;5074262;28;20029;-77
2023/09/19 09:02:15;;;;;;;14.43;2.60;;;;;;;15.10;100.00;100916.78;5074048;28;20028;-76
2023/09/19 09:04:44;;;;;;;18.58;2.75;;;;;;;15.24;100.00;100914.44;5073766;28;20029;-76
2023/09/19 09:07:14;;;;;;;13.68;3.05;;;;;;;15.69;100.00;100907.69;5073546;28;20485;-77
2023/09/19 09:09:43;;;;;;;18.55;3.47;;;;;;;17.04;100.00;100901.38;5073665;28;20037;-77
2023/09/19 09:12:12;;;;;;;22.30;3.70;;;;;;;18.15;100.00;100897.09;5073915;28;20371;-77
2023/09/19 09:14:38;;;;;;;13.95;2.85;;;;;;;18.59;100.00;100906.09;5073660;28;20032;-77
2023/09/19 09:17:03;;;;;;;17.30;3.42;;;;;;;19.22;100.00;100897.41;5073607;28;20461;-76
2023/09/19 09:19:31;;;;;;;14.82;3.67;;;;;;;20.00;100.00;100918.09;5073593;28;20464;-77
2023/09/19 09:22:09;;;;;;;12.93;3.03;;;;;;;19.52;100.00;100905.31;5073783;28;20078;-76
2023/09/19 09:24:37;;;;;;;19.25;3.83;;;;;;;19.09;100.00;100899.97;5073673;28;20464;-76
2023/09/19 09:27:10;;;;;;;15.80;3.08;;;;;;;18.50;100.00;100902.69;5073555;28;20360;-76
2023/09/19 09:29:54;;;;;;;16.40;2.85;;;;;;;18.00;100.00;100900.81;5073513;28;20475;-75
2023/09/19 09:32:23;;;;;;;22.27;3.83;;;;;;;17.96;100.00;100905.75;5073661;28;20035;-76
2023/09/19 09:34:51;;;;;;;21.73;3.42;;;;;;;17.77;100.00;100904.41;5073845;28;20053;-76
2023/09/19 09:37:21;;;;;;;14.02;2.80;;;;;;;17.92;100.00;100902.56;5073135;28;20546;-76
2023/09/19 09:39:56;;;;;;;14.25;3.53;;;;;;;18.00;100.00;100884.66;5072231;28;20097;-75
2023/09/19 09:42:39;;;;;;;17.50;3.53;;;;;;;18.04;100.00;100886.78;5073374;28;20128;-75
2023/09/19 09:45:28;;;;;;;14.95;3.30;;;;;;;18.03;100.00;100895.88;5073988;28;20035;-74
2023/09/19 09:47:55;;;;;;;14.73;2.80;;;;;;;17.80;100.00;100875.25;5072243;28;20033;-75
2023/09/19 09:53:30;;;;;;;11.75;2.58;;;;;;;17.45;100.00;100871.41;5073856;28;20463;-78
2023/09/19 09:56:06;;;;;;;15.52;2.42;;;;;;;17.57;100.00;100874.50;5073073;28;20108;-75
2023/09/19 09:58:49;;;;;;;15.10;2.80;;;;;;;17.74;100.00;100869.78;5072799;28;20040;-76
2023/09/19 10:01:15;;;;;;;11.70;2.50;;;;;;;18.57;100.00;100859.66;5073072;28;20029;-74
2023/09/19 10:03:49;;;;;;;11.82;2.58;;;;;;;18.60;100.00;100861.13;5072703;28;20036;-75
2023/09/19 10:06:26;;;;;;;9.27;2.17;;;;;;;18.23;100.00;100874.59;5073389;28;20043;-76
2023/09/19 10:09:13;;;;;;;9.70;2.35;;;;;;;17.88;100.00;100866.25;5072740;28;20169;-75
2023/09/19 10:11:42;;;;;;;12.07;2.33;;;;;;;17.77;100.00;100864.88;5072905;28;20033;-76
2023/09/19 10:14:10;;;;;;;10.02;2.40;;;;;;;17.60;100.00;100853.47;5073409;28;20127;-75
2023/09/19 10:16:45;;;;;;;13.13;2.90;;;;;;;17.71;100.00;100852.16;5072848;28;20037;-77
2023/09/19 10:19:34;;;;;;;12.60;2.83;;;;;;;17.97;100.00;100848.16;5072487;28;20497;-78
2023/09/19 10:22:01;;;;;;;10.35;2.85;;;;;;;18.20;100.00;100837.28;5064762;28;20094;-79
2023/09/19 10:24:28;;;;;;;12.45;2.40;;;;;;;18.49;100.00;100841.72;5073088;28;20040;-78
2023/09/19 10:26:55;;;;;;;18.60;2.30;;;;;;;18.88;100.00;100846.91;5072503;28;20036;-78
2023/09/19 10:29:21;;;;;;;13.75;2.50;;;;;;;19.33;100.00;100836.69;5072660;28;20033;-78
2023/09/19 10:31:47;;;;;;;11.52;2.45;;;;;;;19.56;100.00;100845.34;5072591;28;20094;-76
2023/09/19 10:34:17;;;;;;;11.82;2.20;;;;;;;19.25;100.00;100847.63;5072958;28;20057;-76
2023/09/19 10:36:46;;;;;;;10.90;2.15;;;;;;;19.03;100.00;100850.34;5072072;28;20357;-75
2023/09/19 10:39:19;;;;;;;12.98;2.50;;;;;;;18.66;100.00;100844.19;5076577;28;20115;-74
2023/09/19 10:41:53;;;;;;;14.20;2.60;;;;;;;18.50;100.00;100840.72;5074986;28;20139;-75
2023/09/19 10:44:25;;;;;;;12.80;2.17;;;;;;;18.44;100.00;100835.28;5076517;28;20025;-76
2023/09/19 10:46:51;;;;;;;8.95;2.17;;;;;;;18.49;100.00;100828.25;5076361;28;20035;-75
2023/09/19 10:49:17;;;;;;;11.38;2.53;;;;;;;18.59;100.00;100843.31;5075743;28;20448;-76
2023/09/19 10:51:45;;;;;;;10.02;1.95;;;;;;;18.78;100.00;100847.19;5076113;28;20430;-75
2023/09/19 10:54:15;;;;;;;10.30;2.20;;;;;;;19.09;100.00;100843.34;5076233;28;20259;-76
2023/09/19 10:56:49;;;;;;;9.30;2.05;;;;;;;19.30;100.00;100832.53;5076117;28;20093;-75
2023/09/19 10:59:20;;;;;;;10.57;2.40;;;;;;;18.83;100.00;100832.13;5076121;28;20037;-77
2023/09/19 11:01:56;;;;;;;10.77;2.22;;;;;;;18.72;100.00;100819.19;5075846;28;20071;-78
2023/09/19 11:04:30;;;;;;;6.70;2.22;;;;;;;18.44;100.00;100832.56;5074596;28;20028;-76
2023/09/19 11:07:11;;;;;;;11.40;2.17;;;;;;;18.04;100.00;100815.97;5075490;28;20119;-75
2023/09/19 11:09:53;;;;;;;12.45;2.80;;;;;;;17.99;100.00;100808.47;5076051;28;20028;-75
2023/09/19 11:12:54;;;;;;;8.73;1.80;;;;;;;18.02;100.00;100810.78;5076254;28;20111;-75
2023/09/19 11:15:54;;;;;;;12.90;2.55;;;;;;;17.98;100.00;100810.28;5075612;28;20032;-79
2023/09/19 11:18:39;;;;;;;12.60;2.20;;;;;;;17.79;100.00;100832.38;5075527;28;20449;-79
2023/09/19 11:21:38;;;;;;;10.93;2.13;;;;;;;17.58;100.00;100819.69;5075393;28;20115;-77
2023/09/19 11:24:25;;;;;;;14.35;2.45;;;;;;;17.37;100.00;100820.44;5061410;28;20036;-75